< Typhoon 200208 2002 Season Typhoon 200210 >
Typhoon 200209 (FENGSHEN)
General InformationTrack Information on Google MapsDetailed Wind InformationList of All Images || NewsDisaster Info.ResourceGoogle EarthGE AnimationAtom FeedGeoJSON
Detalied Best Track (Time Zone = UTC)
Year Month Day Hour Lat. Long. Pressure (hPa) Wind (kt) Class Image Chart
2002 7 13 18 10.9 171.8 1000 0 2 Image Chart
2002 7 14 00 11.0 170.9 995 35 3 Image Chart
2002 7 14 06 11.6 170.7 990 40 3 Image Chart
2002 7 14 12 12.0 170.4 985 50 4 Image Chart
2002 7 14 18 12.6 170.2 985 50 4 Image Chart
2002 7 15 00 13.1 170.3 980 55 4 Image Chart
2002 7 15 06 13.6 170.4 975 60 4 Image Chart
2002 7 15 12 13.9 170.5 970 65 5 Image Chart
2002 7 15 18 14.3 170.3 965 70 5 Image Chart
2002 7 16 00 14.5 169.9 955 75 5 Image Chart
2002 7 16 06 14.6 169.5 950 80 5 Image Chart
2002 7 16 12 14.5 168.9 940 85 5 Image Chart
2002 7 16 18 14.5 168.6 935 90 5 Image Chart
2002 7 17 00 14.6 167.9 930 90 5 Image Chart
2002 7 17 06 14.6 167.3 930 90 5 Image Chart
2002 7 17 12 14.7 166.4 930 90 5 Image Chart
2002 7 17 18 14.7 165.5 930 95 5 Image Chart
2002 7 18 00 14.6 164.6 930 95 5 Image Chart
2002 7 18 06 14.6 163.8 930 95 5 Image Chart
2002 7 18 12 14.8 163.0 930 95 5 Image Chart
2002 7 18 18 15.0 162.1 925 100 5 Image Chart
2002 7 19 00 15.1 161.3 925 100 5 Image Chart
2002 7 19 06 15.3 160.5 925 100 5 Image Chart
2002 7 19 12 15.5 159.8 925 100 5 Image Chart
2002 7 19 18 15.8 159.1 930 95 5 Image Chart
2002 7 20 00 16.0 158.5 930 95 5 Image Chart
2002 7 20 06 16.6 158.1 930 95 5 Image Chart
2002 7 20 12 17.2 157.6 930 95 5 Image Chart
2002 7 20 18 17.8 157.0 930 95 5 Image Chart
2002 7 21 00 19.0 156.2 930 95 5 Image Chart
2002 7 21 06 19.8 155.3 920 100 5 Image Chart
2002 7 21 12 20.5 154.3 920 100 5 Image Chart
2002 7 21 18 21.4 153.4 920 100 5 Image Chart
2002 7 22 00 22.2 152.2 920 100 5 Image Chart
2002 7 22 06 23.3 151.2 925 95 5 Image Chart
2002 7 22 12 24.2 150.0 925 95 5 Image Chart
2002 7 22 18 25.0 148.7 930 90 5 Image Chart
2002 7 23 00 25.9 147.5 940 85 5 Image Chart
2002 7 23 03 26.2 146.8 940 85 5 Image Chart
2002 7 23 06 26.7 146.1 945 80 5 Image Chart
2002 7 23 09 27.1 145.5 945 80 5 Image Chart
2002 7 23 12 27.5 144.7 945 80 5 Image Chart
2002 7 23 15 27.7 143.9 945 80 5 Image Chart
2002 7 23 18 27.9 143.0 945 80 5 Image Chart
2002 7 23 21 28.1 142.2 945 80 5 Image Chart
2002 7 24 00 28.5 141.1 955 75 5 Image Chart
2002 7 24 03 28.7 140.2 955 75 5 Image Chart
2002 7 24 06 28.7 139.1 960 70 5 Image Chart
2002 7 24 12 28.7 137.7 965 65 5 Image Chart
2002 7 24 18 29.0 136.1 965 65 5 Image Chart
2002 7 25 00 29.6 134.1 970 60 4 Image Chart
2002 7 25 03 30.0 133.1 970 60 4 Image Chart
2002 7 25 06 30.2 132.2 970 60 4 Image Chart
2002 7 25 09 30.3 131.5 970 60 4 Image Chart
2002 7 25 11 30.3 130.9 970 55 4 Image Chart
2002 7 25 12 30.3 130.6 970 55 4 Image Chart
2002 7 25 15 30.5 130.1 970 55 4 Image Chart
2002 7 25 18 30.9 129.3 975 55 4 Image Chart
2002 7 25 21 31.4 128.4 975 55 4 Image Chart
2002 7 26 00 31.9 128.0 975 55 4 Image Chart
2002 7 26 03 31.9 127.3 975 55 4 Image Chart
2002 7 26 06 32.2 126.8 980 50 4 Image Chart
2002 7 26 12 33.0 125.7 985 45 3 Image Chart
2002 7 26 18 33.5 124.5 990 40 3 Image Chart
2002 7 27 00 33.9 123.4 996 35 3 Image Chart
2002 7 27 06 34.7 122.2 998 35 3 Image Chart
2002 7 27 12 35.0 120.9 1002 0 2 Image Chart
2002 7 27 18 35.5 120.2 1004 0 2 Image Chart
2002 7 28 00 37.0 119.7 1006 0 2 Image Chart
2002 7 28 06 37.6 119.2 1006 0 2 Image Chart
2002 7 28 12 38.2 118.4 1006 0 2 Image Chart
Japan Meteorological Agency Best Track Data | Correction Date : 2006-01-18
< Typhoon 200208 2002 Season Typhoon 200210 >

Help